Arima Maru — JD3917 — position and weather

sailwx.info

Track history (hours):
 
Tides and Currents Weather Stations Pressure Air Temp Water Temp Dewpoint Dewpoint Depression Visibility Wind Speed Wind Dir Waves Ship Positions

Arima Maru

Last reported at 2018-Jun-21 23:29 UTC. Time now 2018-Jun-21 23:56 UTC.
Position N 35°17' E 139°41'.

Length 40 m; draft 3 m.

Type: Tug. MMSI: 431006958.

Date/timePositionNaut miles runAvg speedWind from/ knotsBaromVisibWave heightAir tempDewpointWater temp
2018-Jun-21 23:29N 35°17' E 139°41'0 0.1
2018-Jun-21 23:00N 35°17' E 139°41'0 0.0
2018-Jun-21 22:29N 35°17' E 139°41'0 0.0
2018-Jun-21 22:00N 35°17' E 139°41'0 0.0
2018-Jun-21 21:30N 35°17' E 139°41'0 0.0
2018-Jun-21 20:59N 35°17' E 139°41'0 0.0
2018-Jun-21 20:30N 35°17' E 139°41'0 0.0
2018-Jun-21 20:00N 35°17' E 139°41'0 0.0
2018-Jun-21 19:30N 35°17' E 139°41'0 0.0
2018-Jun-21 19:00N 35°17' E 139°41'0 0.0
2018-Jun-21 18:31N 35°17' E 139°41'0 0.0
2018-Jun-21 17:56N 35°17' E 139°41'0 0.0
2018-Jun-21 17:29N 35°17' E 139°41'0 0.0
2018-Jun-21 17:00N 35°17' E 139°41'0 0.0
2018-Jun-21 16:30N 35°17' E 139°41'0 0.0
2018-Jun-21 15:59N 35°17' E 139°41'0 0.0
2018-Jun-21 15:29N 35°17' E 139°41'0 0.0
2018-Jun-21 15:00N 35°17' E 139°41'0 0.0
2018-Jun-21 14:30N 35°17' E 139°41'0 0.0
2018-Jun-21 14:00N 35°17' E 139°41'0 0.0
2018-Jun-21 13:29N 35°17' E 139°41'0 0.0
2018-Jun-21 13:00N 35°17' E 139°41'0 0.0
2018-Jun-21 12:30N 35°17' E 139°41'0 0.0
2018-Jun-21 12:00N 35°17' E 139°41'0 0.0
2018-Jun-21 11:30N 35°17' E 139°41'0 0.0
2018-Jun-21 11:00N 35°17' E 139°41'0 0.0
2018-Jun-21 10:30N 35°17' E 139°41'0 0.0
2018-Jun-21 09:56N 35°17' E 139°41'0 0.0
2018-Jun-21 09:29N 35°17' E 139°41'0 0.0
2018-Jun-21 09:00N 35°17' E 139°41'0 0.0
2018-Jun-21 08:30N 35°17' E 139°41'0 0.0
2018-Jun-21 08:00N 35°17' E 139°41'0 0.0
2018-Jun-21 07:30N 35°17' E 139°41'0 0.0
2018-Jun-21 07:00N 35°17' E 139°41'0 0.0
2018-Jun-21 06:30N 35°17' E 139°41'0 0.0
2018-Jun-21 06:00N 35°17' E 139°41'0 0.0
2018-Jun-21 03:42N 35°17' E 139°41'0 0.0
2018-Jun-21 03:30N 35°17' E 139°41'0 0.0
2018-Jun-21 02:39N 35°17' E 139°41'0 0.0
2018-Jun-21 02:21N 35°17' E 139°41'0 0.0
2018-Jun-21 01:53N 35°17' E 139°41'0 0.0
2018-Jun-21 01:27N 35°17' E 139°41'0 0.0
2018-Jun-21 00:59N 35°17' E 139°41'0 0.0
2018-Jun-21 00:30N 35°17' E 139°41'0 0.0
2018-Jun-20 23:56N 35°17' E 139°41'0 0.0
2018-Jun-20 23:27N 35°17' E 139°41'0 0.1
2018-Jun-20 23:00N 35°17' E 139°41'0 0.1
2018-Jun-20 22:29N 35°17' E 139°41'0 0.0
2018-Jun-20 21:56N 35°17' E 139°41'4 9.1
2018-Jun-20 21:31N 35°21' E 139°42'611.0
2018-Jun-20 21:00N 35°25' E 139°46'611.8
2018-Jun-20 20:30N 35°19' E 139°44'712.5
2018-Jun-20 19:56N 35°13' E 139°47'2 3.7
2018-Jun-20 19:17N 35°11' E 139°45'3 8.4
2018-Jun-20 18:54N 35°13' E 139°43'0 0.3
2018-Jun-20 18:18N 35°13' E 139°43'0 0.0
2018-Jun-20 15:52N 35°13' E 139°43'0 0.0
2018-Jun-20 12:11N 35°13' E 139°43'0 2.3
2018-Jun-20 12:01N 35°13' E 139°43'2 3.9
2018-Jun-20 11:27N 35°12' E 139°46'511.9
2018-Jun-20 11:00N 35°17' E 139°45'612.5
2018-Jun-20 10:30N 35°23' E 139°43'1 2.7
2018-Jun-20 10:00N 35°24' E 139°44'2 3.8
2018-Jun-20 09:30N 35°22' E 139°43'4 7.0
2018-Jun-20 09:00N 35°19' E 139°42'2 4.3
2018-Jun-20 08:30N 35°17' E 139°41'0 0.1
2018-Jun-20 08:00N 35°17' E 139°41'0 0.4
2018-Jun-20 07:30N 35°17' E 139°41'0 0.0
2018-Jun-20 07:00N 35°17' E 139°41'0 0.1
2018-Jun-20 06:30N 35°17' E 139°41'0 0.0
2018-Jun-20 06:00N 35°17' E 139°41'0 0.1
2018-Jun-20 05:30N 35°17' E 139°41'0 0.0
2018-Jun-20 05:00N 35°17' E 139°41'0 0.0
2018-Jun-20 04:30N 35°17' E 139°41'0 0.1
2018-Jun-20 04:00N 35°17' E 139°41'0 0.0
2018-Jun-20 03:30N 35°17' E 139°41'0 0.0
2018-Jun-20 02:59N 35°17' E 139°41'0 0.0
2018-Jun-19 23:17N 35°17' E 139°41'0 0.2
2018-Jun-19 23:00N 35°17' E 139°41'0 0.0
2018-Jun-19 22:30N 35°17' E 139°41'0 0.0
2018-Jun-19 22:00N 35°17' E 139°41'0 0.0
2018-Jun-19 21:30N 35°17' E 139°41'0 0.0
2018-Jun-19 21:00N 35°17' E 139°41'0 0.0
2018-Jun-19 20:30N 35°17' E 139°41'0 0.0
2018-Jun-19 20:00N 35°17' E 139°41'0 0.0
2018-Jun-19 19:30N 35°17' E 139°41'0 0.0
2018-Jun-19 18:58N 35°17' E 139°41'0 0.0
2018-Jun-19 18:30N 35°17' E 139°41'0 0.0
2018-Jun-19 17:59N 35°17' E 139°41'0 0.0
2018-Jun-19 17:30N 35°17' E 139°41'0 0.0
2018-Jun-19 17:00N 35°17' E 139°41'0 0.0
2018-Jun-19 16:30N 35°17' E 139°41'0 0.0
2018-Jun-19 16:00N 35°17' E 139°41'0 0.0
2018-Jun-19 15:30N 35°17' E 139°41'0 0.0
2018-Jun-19 14:59N 35°17' E 139°41'0 0.0
2018-Jun-19 14:29N 35°17' E 139°41'0 0.0
2018-Jun-19 14:00N 35°17' E 139°41'0 0.0
2018-Jun-19 13:26N 35°17' E 139°41'0 0.0
2018-Jun-19 13:00N 35°17' E 139°41'0 0.0
2018-Jun-19 12:30N 35°17' E 139°41'0 0.0
2018-Jun-19 12:00N 35°17' E 139°41'0 0.0
2018-Jun-19 11:30N 35°17' E 139°41'0 0.0
2018-Jun-19 11:00N 35°17' E 139°41'0 0.0
2018-Jun-19 10:29N 35°17' E 139°41'0 0.0
2018-Jun-19 09:56N 35°17' E 139°41'0 0.0
2018-Jun-19 09:29N 35°17' E 139°41'0 0.0
2018-Jun-19 08:57N 35°17' E 139°41'0 0.0
2018-Jun-19 08:29N 35°17' E 139°41'0 0.0
2018-Jun-19 07:59N 35°17' E 139°41'0 0.0
2018-Jun-19 07:29N 35°17' E 139°41'0 0.0
2018-Jun-19 07:00N 35°17' E 139°41'0 0.0
2018-Jun-19 06:30N 35°17' E 139°41'0 0.0
2018-Jun-19 06:00N 35°17' E 139°41'0 0.0
2018-Jun-19 05:29N 35°17' E 139°41'0 0.0
2018-Jun-19 04:46N 35°17' E 139°41'0 0.0
2018-Jun-19 04:29N 35°17' E 139°41'0 0.0
2018-Jun-19 03:59N 35°17' E 139°41'0 0.0
2018-Jun-19 03:24N 35°17' E 139°41'0 0.0
2018-Jun-19 03:00N 35°17' E 139°41'0 0.0
2018-Jun-19 02:30N 35°17' E 139°41'0 0.0
2018-Jun-19 02:00N 35°17' E 139°41'0 0.0
2018-Jun-19 01:30N 35°17' E 139°41'0 0.1
2018-Jun-19 00:56N 35°17' E 139°41'0 0.0
2018-Jun-19 00:23N 35°17' E 139°41'0 0.0
2018-Jun-19 00:00N 35°17' E 139°41'0 0.0
2018-Jun-18 23:30N 35°17' E 139°41'0 0.0
2018-Jun-18 23:00N 35°17' E 139°41'1 2.0
2018-Jun-18 22:30N 35°18' E 139°42'4 7.1
2018-Jun-18 22:00N 35°21' E 139°41'2 4.9
2018-Jun-18 21:30N 35°23' E 139°43'2 3.5
2018-Jun-18 21:00N 35°23' E 139°46'611.8
2018-Jun-18 20:30N 35°17' E 139°46'710.4
2018-Jun-18 19:50N 35°10' E 139°47'3 7.7
2018-Jun-18 19:30N 35°12' E 139°47'510.1
2018-Jun-18 18:59N 35°17' E 139°44'3 6.0
2018-Jun-18 18:30N 35°17' E 139°41'0 0.0
2018-Jun-18 18:00N 35°17' E 139°41'0 0.0
2018-Jun-18 17:30N 35°17' E 139°41'0 0.0
2018-Jun-18 17:00N 35°17' E 139°41'0 0.0
2018-Jun-18 16:30N 35°17' E 139°41'0 0.0
2018-Jun-18 16:00N 35°17' E 139°41'0 0.0
2018-Jun-18 15:30N 35°17' E 139°41'0 0.0
2018-Jun-18 15:00N 35°17' E 139°41'0 0.0
2018-Jun-18 14:30N 35°17' E 139°41'0 0.0
2018-Jun-18 14:00N 35°17' E 139°41'0 0.0
2018-Jun-18 13:30N 35°17' E 139°41'0 0.0
2018-Jun-18 13:00N 35°17' E 139°41'0 0.0
2018-Jun-18 12:30N 35°17' E 139°41'0 0.0
2018-Jun-18 12:00N 35°17' E 139°41'2 3.4
2018-Jun-18 11:30N 35°19' E 139°42'510.8
2018-Jun-18 11:00N 35°23' E 139°45'2 3.5
2018-Jun-18 10:30N 35°22' E 139°45'611.7
2018-Jun-18 10:01N 35°16' E 139°46'712.4
2018-Jun-18 09:29N 35°09' E 139°46'4 8.6
2018-Jun-18 09:00N 35°13' E 139°44'1 2.0
2018-Jun-18 08:30N 35°13' E 139°43'2 4.6
2018-Jun-18 07:59N 35°12' E 139°46'6 9.3
2018-Jun-18 07:20N 35°18' E 139°44'412.7
2018-Jun-18 07:00N 35°22' E 139°42'611.9
2018-Jun-18 06:30N 35°27' E 139°47'9 8.6
2018-Jun-18 05:26N 35°29' E 139°58'0 0.2
2018-Jun-18 04:51N 35°29' E 139°58'4 5.2
2018-Jun-18 04:06N 35°27' E 139°53'110.1
2018-Jun-18 04:00N 35°27' E 139°53'510.6
2018-Jun-18 03:30N 35°23' E 139°48'611.1
2018-Jun-18 03:01N 35°19' E 139°43'3 1.2
2018-Jun-18 00:39N 35°17' E 139°41'0 1.3
2018-Jun-18 00:30N 35°17' E 139°41'0 0.0
2018-Jun-18 00:00N 35°17' E 139°41'0 0.0
2018-Jun-17 23:30N 35°17' E 139°41'0 0.0
2018-Jun-17 23:00N 35°17' E 139°41'0 0.0
2018-Jun-17 22:30N 35°17' E 139°41'0 0.0
2018-Jun-17 22:00N 35°17' E 139°41'0 0.0
2018-Jun-17 21:30N 35°17' E 139°41'0 0.0
2018-Jun-17 21:00N 35°17' E 139°41'0 0.0
2018-Jun-17 20:30N 35°17' E 139°41'0 0.0
2018-Jun-17 20:00N 35°17' E 139°41'0 0.0
2018-Jun-17 19:30N 35°17' E 139°41'0 0.0
2018-Jun-17 19:00N 35°17' E 139°41'0 0.0
2018-Jun-17 18:30N 35°17' E 139°41'0 0.0
2018-Jun-17 18:00N 35°17' E 139°41'0 0.0
2018-Jun-17 17:30N 35°17' E 139°41'0 0.0
2018-Jun-17 17:00N 35°17' E 139°41'0 0.0
2018-Jun-17 16:30N 35°17' E 139°41'0 0.0
2018-Jun-17 16:00N 35°17' E 139°41'0 0.0
2018-Jun-17 15:30N 35°17' E 139°41'0 0.0
2018-Jun-17 15:00N 35°17' E 139°41'0 0.0
2018-Jun-17 14:30N 35°17' E 139°41'0 0.0
2018-Jun-17 14:00N 35°17' E 139°41'0 0.0
2018-Jun-17 13:30N 35°17' E 139°41'0 0.0
2018-Jun-17 13:00N 35°17' E 139°41'0 0.0
2018-Jun-17 12:30N 35°17' E 139°41'0 0.0
2018-Jun-17 12:00N 35°17' E 139°41'0 0.0
2018-Jun-17 11:30N 35°17' E 139°41'0 0.0
2018-Jun-17 11:00N 35°17' E 139°41'0 0.0
2018-Jun-17 10:30N 35°17' E 139°41'0 0.0
2018-Jun-17 10:00N 35°17' E 139°41'0 0.0
2018-Jun-17 09:30N 35°17' E 139°41'0 0.0
2018-Jun-17 09:00N 35°17' E 139°41'0 0.0
2018-Jun-17 08:30N 35°17' E 139°41'0 0.0
2018-Jun-17 08:00N 35°17' E 139°41'0 0.0
2018-Jun-17 07:30N 35°17' E 139°41'0 0.0
2018-Jun-17 07:00N 35°17' E 139°41'0 0.0
2018-Jun-17 06:30N 35°17' E 139°41'0 0.0
2018-Jun-17 06:00N 35°17' E 139°41'0 0.0
2018-Jun-17 05:30N 35°17' E 139°41'0 0.0
2018-Jun-17 05:00N 35°17' E 139°41'0 0.0
2018-Jun-17 04:30N 35°17' E 139°41'0 0.0
2018-Jun-17 04:00N 35°17' E 139°41'0 0.0
2018-Jun-17 03:30N 35°17' E 139°41'0 0.0
2018-Jun-17 03:00N 35°17' E 139°41'0 0.5
2018-Jun-17 02:31N 35°17' E 139°41'7 8.6
2018-Jun-17 01:44N 35°12' E 139°46'312.0
2018-Jun-17 01:30N 35°15' E 139°46'612.7
2018-Jun-17 01:01N 35°20' E 139°42'713.2
2018-Jun-17 00:31N 35°26' E 139°45'4 7.8
2018-Jun-17 00:00N 35°30' E 139°47'1 0.6
2018-Jun-16 23:09N 35°29' E 139°47'0 0.0
2018-Jun-16 23:00N 35°29' E 139°47'3 5.2
2018-Jun-16 22:31N 35°27' E 139°46'510.9
2018-Jun-16 22:00N 35°22' E 139°43'611.6
2018-Jun-16 21:30N 35°17' E 139°46'711.7
2018-Jun-16 20:52N 35°09' E 139°46'4 6.3
2018-Jun-16 20:18N 35°13' E 139°45'2 0.3
2018-Jun-16 13:18N 35°13' E 139°43'2 5.9
2018-Jun-16 12:58N 35°13' E 139°45'4 8.4
2018-Jun-16 12:27N 35°17' E 139°45'613.2
2018-Jun-16 12:00N 35°22' E 139°42'2 4.0
2018-Jun-16 11:30N 35°24' E 139°44'0 0.1
2018-Jun-16 11:00N 35°24' E 139°44'0 0.0
2018-Jun-16 10:30N 35°24' E 139°44'0 0.0
2018-Jun-16 10:00N 35°24' E 139°44'0 0.0
2018-Jun-16 09:30N 35°24' E 139°44'0 0.0
2018-Jun-16 09:00N 35°24' E 139°44'2 4.9
2018-Jun-16 08:30N 35°22' E 139°42'611.6
2018-Jun-16 08:00N 35°16' E 139°46'711.6
2018-Jun-16 07:25N 35°10' E 139°47'4 9.8
2018-Jun-16 06:59N 35°14' E 139°46'5 9.5
2018-Jun-16 06:30N 35°17' E 139°42'2 3.2
2018-Jun-16 06:00N 35°17' E 139°41'0 0.0
2018-Jun-16 05:30N 35°17' E 139°41'0 0.0
2018-Jun-16 05:00N 35°17' E 139°41'0 0.0
2018-Jun-16 04:30N 35°17' E 139°41'0 0.0
2018-Jun-16 04:00N 35°17' E 139°41'0 0.0
2018-Jun-16 03:30N 35°17' E 139°41'0 0.0
2018-Jun-16 03:00N 35°17' E 139°41'0 0.0
2018-Jun-16 02:30N 35°17' E 139°41'0 0.0
2018-Jun-16 02:00N 35°17' E 139°41'0 0.0
2018-Jun-16 01:28N 35°17' E 139°41'1 2.9
2018-Jun-16 00:59N 35°18' E 139°42'2 4.5
2018-Jun-16 00:30N 35°18' E 139°39'2 3.8
2018-Jun-16 00:00N 35°17' E 139°41'0 0.4
2018-Jun-15 23:30N 35°17' E 139°41'0 0.0
2018-Jun-15 23:00N 35°17' E 139°41'0 0.0
2018-Jun-15 22:30N 35°17' E 139°41'0 0.0
2018-Jun-15 22:00N 35°17' E 139°41'0 0.0
2018-Jun-15 21:30N 35°17' E 139°41'0 0.0
2018-Jun-15 21:00N 35°17' E 139°41'0 0.0
2018-Jun-15 20:30N 35°17' E 139°41'0 0.0
2018-Jun-15 20:00N 35°17' E 139°41'0 0.0
2018-Jun-15 19:30N 35°17' E 139°41'0 0.0
2018-Jun-15 19:00N 35°17' E 139°41'0 0.0
2018-Jun-15 18:30N 35°17' E 139°41'0 0.0
2018-Jun-15 18:00N 35°17' E 139°41'0 0.0
2018-Jun-15 17:30N 35°17' E 139°41'0 0.0
2018-Jun-15 17:00N 35°17' E 139°41'0 0.0
2018-Jun-15 16:30N 35°17' E 139°41'0 0.0
2018-Jun-15 16:00N 35°17' E 139°41'0 0.0
2018-Jun-15 15:30N 35°17' E 139°41'0 0.0
2018-Jun-15 15:00N 35°17' E 139°41'0 0.0
2018-Jun-15 14:30N 35°17' E 139°41'0 0.0
2018-Jun-15 14:00N 35°17' E 139°41'0 0.0
2018-Jun-15 13:30N 35°17' E 139°41'0 0.0
2018-Jun-15 13:00N 35°17' E 139°41'0 0.0
2018-Jun-15 12:30N 35°17' E 139°41'0 0.0
2018-Jun-15 12:00N 35°17' E 139°41'0 0.0
2018-Jun-15 11:30N 35°17' E 139°41'0 0.0
2018-Jun-15 11:00N 35°17' E 139°41'0 0.0
2018-Jun-15 10:30N 35°17' E 139°41'0 0.0
2018-Jun-15 10:00N 35°17' E 139°41'0 0.0
2018-Jun-15 09:31N 35°17' E 139°41'0 0.0
2018-Jun-15 09:00N 35°17' E 139°41'0 0.0
2018-Jun-15 08:30N 35°17' E 139°41'0 0.0
2018-Jun-15 08:00N 35°17' E 139°41'0 0.0
2018-Jun-15 07:29N 35°17' E 139°41'0 0.0
2018-Jun-15 07:00N 35°17' E 139°41'0 0.0
2018-Jun-15 06:30N 35°17' E 139°41'0 0.0
2018-Jun-15 06:00N 35°17' E 139°41'0 0.0
2018-Jun-15 05:30N 35°17' E 139°41'1 2.7
2018-Jun-15 05:00N 35°18' E 139°42'2 4.2
2018-Jun-15 04:30N 35°18' E 139°39'1 2.0
2018-Jun-15 04:00N 35°19' E 139°40'1 2.0
2018-Jun-15 03:30N 35°19' E 139°41'1 1.7
2018-Jun-15 02:58N 35°19' E 139°40'0 0.0
2018-Jun-15 02:29N 35°19' E 139°40'0 0.0
2018-Jun-15 02:00N 35°19' E 139°40'0 0.0
2018-Jun-15 01:30N 35°19' E 139°40'1 2.6
2018-Jun-15 01:00N 35°20' E 139°41'4 7.8
2018-Jun-15 00:30N 35°23' E 139°38'1 1.7
2018-Jun-15 00:00N 35°24' E 139°39'1 1.5
2018-Jun-14 23:30N 35°23' E 139°38'0 0.1
2018-Jun-14 23:00N 35°23' E 139°38'0 0.2
2018-Jun-14 22:30N 35°23' E 139°38'0 0.2
2018-Jun-14 22:00N 35°23' E 139°38'4 8.8
2018-Jun-14 21:30N 35°20' E 139°41'3 5.0
2018-Jun-14 20:57N 35°17' E 139°41'0 0.0
2018-Jun-14 20:30N 35°17' E 139°41'0 0.0
2018-Jun-14 19:57N 35°17' E 139°41'0 0.0
2018-Jun-14 19:30N 35°17' E 139°41'0 0.0
2018-Jun-14 18:59N 35°17' E 139°41'0 0.0
2018-Jun-14 18:30N 35°17' E 139°41'0 0.0
2018-Jun-14 17:58N 35°17' E 139°41'0 0.0
2018-Jun-14 10:07N 35°17' E 139°41'0 0.0
2018-Jun-14 10:00N 35°17' E 139°41'0 0.0
2018-Jun-14 09:30N 35°17' E 139°41'0 0.0
2018-Jun-14 08:58N 35°17' E 139°41'0 0.0
2018-Jun-14 08:29N 35°17' E 139°41'5 9.9
2018-Jun-14 08:00N 35°22' E 139°42'510.6
2018-Jun-14 07:30N 35°26' E 139°46'611.1
2018-Jun-14 07:00N 35°30' E 139°51'3 2.8
2018-Jun-14 05:59N 35°31' E 139°54'4 8.4
2018-Jun-14 05:30N 35°28' E 139°51'611.7
2018-Jun-14 05:00N 35°24' E 139°46'611.8
2018-Jun-14 04:30N 35°18' E 139°45'4 2.5
2018-Jun-14 02:47N 35°14' E 139°46'3 9.1
2018-Jun-14 02:25N 35°17' E 139°44'4 9.1
2018-Jun-14 02:00N 35°20' E 139°42'4 8.3
2018-Jun-14 01:30N 35°23' E 139°46'3 5.0
2018-Jun-14 01:00N 35°21' E 139°45'5 9.8
2018-Jun-14 00:30N 35°16' E 139°47'5 5.3
2018-Jun-13 23:34N 35°11' E 139°47'3 9.2
2018-Jun-13 23:14N 35°14' E 139°46'311.0
2018-Jun-13 22:58N 35°17' E 139°44'3 6.2
2018-Jun-13 22:27N 35°17' E 139°41'0 0.0
2018-Jun-13 22:00N 35°17' E 139°41'0 0.0
2018-Jun-13 21:29N 35°17' E 139°41'0 0.0
2018-Jun-13 21:00N 35°17' E 139°41'0 0.0
2018-Jun-13 20:30N 35°17' E 139°41'0 0.0
2018-Jun-13 20:00N 35°17' E 139°41'0 0.0
2018-Jun-13 19:30N 35°17' E 139°41'0 0.0
2018-Jun-13 19:00N 35°17' E 139°41'0 0.0
2018-Jun-13 17:29N 35°17' E 139°41'0 0.0
2018-Jun-13 16:58N 35°17' E 139°41'0 0.0
2018-Jun-13 15:55N 35°17' E 139°41'0 0.0
2018-Jun-13 15:24N 35°17' E 139°41'0 0.0
2018-Jun-13 14:49N 35°17' E 139°41'0 0.0
2018-Jun-13 13:03N 35°17' E 139°41'0 0.0
2018-Jun-13 08:39N 35°17' E 139°41'0 0.0
2018-Jun-13 08:28N 35°17' E 139°41'0 0.0
2018-Jun-13 08:00N 35°17' E 139°41'0 0.0
2018-Jun-13 07:29N 35°17' E 139°41'0 0.0
2018-Jun-13 07:00N 35°17' E 139°41'0 0.0
2018-Jun-13 06:30N 35°17' E 139°41'0 0.0
2018-Jun-13 06:00N 35°17' E 139°41'0 0.0
2018-Jun-13 05:30N 35°17' E 139°41'0 0.0
2018-Jun-13 05:00N 35°17' E 139°41'0 0.0
2018-Jun-13 04:30N 35°17' E 139°41'0 0.0
2018-Jun-13 04:00N 35°17' E 139°41'0 0.0
2018-Jun-13 03:30N 35°17' E 139°41'0 0.0
2018-Jun-13 03:00N 35°17' E 139°41'3 6.9
2018-Jun-13 02:30N 35°20' E 139°42'610.8
2018-Jun-13 01:59N 35°24' E 139°47'611.2
2018-Jun-13 01:30N 35°27' E 139°53'2 3.2
2018-Jun-13 00:55N 35°28' E 139°51'511.4
2018-Jun-13 00:30N 35°25' E 139°47'612.6
2018-Jun-13 00:00N 35°19' E 139°44'8 6.5
2018-Jun-12 22:46N 35°11' E 139°46'3 9.1
2018-Jun-12 22:29N 35°13' E 139°44'2 3.9
2018-Jun-12 21:59N 35°12' E 139°46'610.5
2018-Jun-12 21:27N 35°17' E 139°45'612.8
2018-Jun-12 21:00N 35°22' E 139°42'1 1.9
2018-Jun-12 20:30N 35°22' E 139°43'5 9.5
2018-Jun-12 20:00N 35°17' E 139°41'0 0.4
2018-Jun-12 19:29N 35°17' E 139°41'0 0.0
2018-Jun-12 19:00N 35°17' E 139°41'0 0.1
2018-Jun-12 18:30N 35°17' E 139°41'0 0.1
2018-Jun-12 18:00N 35°17' E 139°41'0 0.1
2018-Jun-12 17:30N 35°17' E 139°41'0 0.1
2018-Jun-12 17:00N 35°17' E 139°41'0 0.0
2018-Jun-12 16:29N 35°17' E 139°41'0 0.1
2018-Jun-12 16:00N 35°17' E 139°41'0 0.1
2018-Jun-12 15:30N 35°17' E 139°41'0 0.0
2018-Jun-12 15:00N 35°17' E 139°41'0 0.1
2018-Jun-12 14:30N 35°17' E 139°41'0 0.1
2018-Jun-12 14:00N 35°17' E 139°41'0 0.0
2018-Jun-12 13:30N 35°17' E 139°41'0 0.0
2018-Jun-12 12:59N 35°17' E 139°41'0 0.0
2018-Jun-12 12:30N 35°17' E 139°41'0 0.0
2018-Jun-12 12:00N 35°17' E 139°41'0 0.0
2018-Jun-12 11:30N 35°17' E 139°41'0 0.0
2018-Jun-12 11:00N 35°17' E 139°41'0 0.0
2018-Jun-12 10:30N 35°17' E 139°41'0 0.0
2018-Jun-12 10:00N 35°17' E 139°41'0 0.0
2018-Jun-12 09:30N 35°17' E 139°41'0 0.0
2018-Jun-12 09:00N 35°17' E 139°41'0 0.0
2018-Jun-12 08:30N 35°17' E 139°41'0 0.0
2018-Jun-12 07:59N 35°17' E 139°41'0 0.0
2018-Jun-12 07:30N 35°17' E 139°41'0 0.0
2018-Jun-12 07:00N 35°17' E 139°41'0 0.0
2018-Jun-12 06:30N 35°17' E 139°41'0 0.0
2018-Jun-12 06:00N 35°17' E 139°41'0 0.0
2018-Jun-12 05:30N 35°17' E 139°41'0 0.1
2018-Jun-12 04:59N 35°17' E 139°41'4 8.9
2018-Jun-12 04:29N 35°15' E 139°45'1 2.6
2018-Jun-12 04:00N 35°14' E 139°46'611.4
2018-Jun-12 03:30N 35°19' E 139°43'510.5
2018-Jun-12 03:00N 35°24' E 139°43'4 7.5
2018-Jun-12 02:30N 35°28' E 139°45'0 0.2
2018-Jun-12 02:01N 35°28' E 139°45'0 0.5
2018-Jun-12 01:31N 35°28' E 139°44'3 6.6
2018-Jun-12 01:00N 35°24' E 139°45'2 3.9
2018-Jun-12 00:30N 35°23' E 139°46'5 9.5
2018-Jun-12 00:00N 35°18' E 139°44'  
Track history (hours):
 
Tides and Currents Weather Stations Pressure Air Temp Water Temp Dewpoint Dewpoint Depression Visibility Wind Speed Wind Dir Waves Ship Positions

Arima Maru

Last reported at 2018-Jun-21 23:29 UTC. Time now 2018-Jun-21 23:56 UTC.
Position N 35°17' E 139°41'.

Length 40 m; draft 3 m.

Type: Tug. MMSI: 431006958.

Date/timePositionNaut miles runAvg speedWind from/ knotsBaromVisibWave heightAir tempDewpointWater temp
2018-Jun-21 23:29N 35°17' E 139°41'0 0.1
2018-Jun-21 23:00N 35°17' E 139°41'0 0.0
2018-Jun-21 22:29N 35°17' E 139°41'0 0.0
2018-Jun-21 22:00N 35°17' E 139°41'0 0.0
2018-Jun-21 21:30N 35°17' E 139°41'0 0.0
2018-Jun-21 20:59N 35°17' E 139°41'0 0.0
2018-Jun-21 20:30N 35°17' E 139°41'0 0.0
2018-Jun-21 20:00N 35°17' E 139°41'0 0.0
2018-Jun-21 19:30N 35°17' E 139°41'0 0.0
2018-Jun-21 19:00N 35°17' E 139°41'0 0.0
2018-Jun-21 18:31N 35°17' E 139°41'0 0.0
2018-Jun-21 17:56N 35°17' E 139°41'0 0.0
2018-Jun-21 17:29N 35°17' E 139°41'0 0.0
2018-Jun-21 17:00N 35°17' E 139°41'0 0.0
2018-Jun-21 16:30N 35°17' E 139°41'0 0.0
2018-Jun-21 15:59N 35°17' E 139°41'0 0.0
2018-Jun-21 15:29N 35°17' E 139°41'0 0.0
2018-Jun-21 15:00N 35°17' E 139°41'0 0.0
2018-Jun-21 14:30N 35°17' E 139°41'0 0.0
2018-Jun-21 14:00N 35°17' E 139°41'0 0.0
2018-Jun-21 13:29N 35°17' E 139°41'0 0.0
2018-Jun-21 13:00N 35°17' E 139°41'0 0.0
2018-Jun-21 12:30N 35°17' E 139°41'0 0.0
2018-Jun-21 12:00N 35°17' E 139°41'0 0.0
2018-Jun-21 11:30N 35°17' E 139°41'0 0.0
2018-Jun-21 11:00N 35°17' E 139°41'0 0.0
2018-Jun-21 10:30N 35°17' E 139°41'0 0.0
2018-Jun-21 09:56N 35°17' E 139°41'0 0.0
2018-Jun-21 09:29N 35°17' E 139°41'0 0.0
2018-Jun-21 09:00N 35°17' E 139°41'0 0.0
2018-Jun-21 08:30N 35°17' E 139°41'0 0.0
2018-Jun-21 08:00N 35°17' E 139°41'0 0.0
2018-Jun-21 07:30N 35°17' E 139°41'0 0.0
2018-Jun-21 07:00N 35°17' E 139°41'0 0.0
2018-Jun-21 06:30N 35°17' E 139°41'0 0.0
2018-Jun-21 06:00N 35°17' E 139°41'0 0.0
2018-Jun-21 03:42N 35°17' E 139°41'0 0.0
2018-Jun-21 03:30N 35°17' E 139°41'0 0.0
2018-Jun-21 02:39N 35°17' E 139°41'0 0.0
2018-Jun-21 02:21N 35°17' E 139°41'0 0.0
2018-Jun-21 01:53N 35°17' E 139°41'0 0.0
2018-Jun-21 01:27N 35°17' E 139°41'0 0.0
2018-Jun-21 00:59N 35°17' E 139°41'0 0.0
2018-Jun-21 00:30N 35°17' E 139°41'0 0.0
2018-Jun-20 23:56N 35°17' E 139°41'0 0.0
2018-Jun-20 23:27N 35°17' E 139°41'0 0.1
2018-Jun-20 23:00N 35°17' E 139°41'0 0.1
2018-Jun-20 22:29N 35°17' E 139°41'0 0.0
2018-Jun-20 21:56N 35°17' E 139°41'4 9.1
2018-Jun-20 21:31N 35°21' E 139°42'611.0
2018-Jun-20 21:00N 35°25' E 139°46'611.8
2018-Jun-20 20:30N 35°19' E 139°44'712.5
2018-Jun-20 19:56N 35°13' E 139°47'2 3.7
2018-Jun-20 19:17N 35°11' E 139°45'3 8.4
2018-Jun-20 18:54N 35°13' E 139°43'0 0.3
2018-Jun-20 18:18N 35°13' E 139°43'0 0.0
2018-Jun-20 15:52N 35°13' E 139°43'0 0.0
2018-Jun-20 12:11N 35°13' E 139°43'0 2.3
2018-Jun-20 12:01N 35°13' E 139°43'2 3.9
2018-Jun-20 11:27N 35°12' E 139°46'511.9
2018-Jun-20 11:00N 35°17' E 139°45'612.5
2018-Jun-20 10:30N 35°23' E 139°43'1 2.7
2018-Jun-20 10:00N 35°24' E 139°44'2 3.8
2018-Jun-20 09:30N 35°22' E 139°43'4 7.0
2018-Jun-20 09:00N 35°19' E 139°42'2 4.3
2018-Jun-20 08:30N 35°17' E 139°41'0 0.1
2018-Jun-20 08:00N 35°17' E 139°41'0 0.4
2018-Jun-20 07:30N 35°17' E 139°41'0 0.0
2018-Jun-20 07:00N 35°17' E 139°41'0 0.1
2018-Jun-20 06:30N 35°17' E 139°41'0 0.0
2018-Jun-20 06:00N 35°17' E 139°41'0 0.1
2018-Jun-20 05:30N 35°17' E 139°41'0 0.0
2018-Jun-20 05:00N 35°17' E 139°41'0 0.0
2018-Jun-20 04:30N 35°17' E 139°41'0 0.1
2018-Jun-20 04:00N 35°17' E 139°41'0 0.0
2018-Jun-20 03:30N 35°17' E 139°41'0 0.0
2018-Jun-20 02:59N 35°17' E 139°41'0 0.0
2018-Jun-19 23:17N 35°17' E 139°41'0 0.2
2018-Jun-19 23:00N 35°17' E 139°41'0 0.0
2018-Jun-19 22:30N 35°17' E 139°41'0 0.0
2018-Jun-19 22:00N 35°17' E 139°41'0 0.0
2018-Jun-19 21:30N 35°17' E 139°41'0 0.0
2018-Jun-19 21:00N 35°17' E 139°41'0 0.0
2018-Jun-19 20:30N 35°17' E 139°41'0 0.0
2018-Jun-19 20:00N 35°17' E 139°41'0 0.0
2018-Jun-19 19:30N 35°17' E 139°41'0 0.0
2018-Jun-19 18:58N 35°17' E 139°41'0 0.0
2018-Jun-19 18:30N 35°17' E 139°41'0 0.0
2018-Jun-19 17:59N 35°17' E 139°41'0 0.0
2018-Jun-19 17:30N 35°17' E 139°41'0 0.0
2018-Jun-19 17:00N 35°17' E 139°41'0 0.0
2018-Jun-19 16:30N 35°17' E 139°41'0 0.0
2018-Jun-19 16:00N 35°17' E 139°41'0 0.0
2018-Jun-19 15:30N 35°17' E 139°41'0 0.0
2018-Jun-19 14:59N 35°17' E 139°41'0 0.0
2018-Jun-19 14:29N 35°17' E 139°41'0 0.0
2018-Jun-19 14:00N 35°17' E 139°41'0 0.0
2018-Jun-19 13:26N 35°17' E 139°41'0 0.0
2018-Jun-19 13:00N 35°17' E 139°41'0 0.0
2018-Jun-19 12:30N 35°17' E 139°41'0 0.0
2018-Jun-19 12:00N 35°17' E 139°41'0 0.0
2018-Jun-19 11:30N 35°17' E 139°41'0 0.0
2018-Jun-19 11:00N 35°17' E 139°41'0 0.0
2018-Jun-19 10:29N 35°17' E 139°41'0 0.0
2018-Jun-19 09:56N 35°17' E 139°41'0 0.0
2018-Jun-19 09:29N 35°17' E 139°41'0 0.0
2018-Jun-19 08:57N 35°17' E 139°41'0 0.0
2018-Jun-19 08:29N 35°17' E 139°41'0 0.0
2018-Jun-19 07:59N 35°17' E 139°41'0 0.0
2018-Jun-19 07:29N 35°17' E 139°41'0 0.0
2018-Jun-19 07:00N 35°17' E 139°41'0 0.0
2018-Jun-19 06:30N 35°17' E 139°41'0 0.0
2018-Jun-19 06:00N 35°17' E 139°41'0 0.0
2018-Jun-19 05:29N 35°17' E 139°41'0 0.0
2018-Jun-19 04:46N 35°17' E 139°41'0 0.0
2018-Jun-19 04:29N 35°17' E 139°41'0 0.0
2018-Jun-19 03:59N 35°17' E 139°41'0 0.0
2018-Jun-19 03:24N 35°17' E 139°41'0 0.0
2018-Jun-19 03:00N 35°17' E 139°41'0 0.0
2018-Jun-19 02:30N 35°17' E 139°41'0 0.0
2018-Jun-19 02:00N 35°17' E 139°41'0 0.0
2018-Jun-19 01:30N 35°17' E 139°41'0 0.1
2018-Jun-19 00:56N 35°17' E 139°41'0 0.0
2018-Jun-19 00:23N 35°17' E 139°41'0 0.0
2018-Jun-19 00:00N 35°17' E 139°41'0 0.0
2018-Jun-18 23:30N 35°17' E 139°41'0 0.0
2018-Jun-18 23:00N 35°17' E 139°41'1 2.0
2018-Jun-18 22:30N 35°18' E 139°42'4 7.1
2018-Jun-18 22:00N 35°21' E 139°41'2 4.9
2018-Jun-18 21:30N 35°23' E 139°43'2 3.5
2018-Jun-18 21:00N 35°23' E 139°46'611.8
2018-Jun-18 20:30N 35°17' E 139°46'710.4
2018-Jun-18 19:50N 35°10' E 139°47'3 7.7
2018-Jun-18 19:30N 35°12' E 139°47'510.1
2018-Jun-18 18:59N 35°17' E 139°44'3 6.0
2018-Jun-18 18:30N 35°17' E 139°41'0 0.0
2018-Jun-18 18:00N 35°17' E 139°41'0 0.0
2018-Jun-18 17:30N 35°17' E 139°41'0 0.0
2018-Jun-18 17:00N 35°17' E 139°41'0 0.0
2018-Jun-18 16:30N 35°17' E 139°41'0 0.0
2018-Jun-18 16:00N 35°17' E 139°41'0 0.0
2018-Jun-18 15:30N 35°17' E 139°41'0 0.0
2018-Jun-18 15:00N 35°17' E 139°41'0 0.0
2018-Jun-18 14:30N 35°17' E 139°41'0 0.0
2018-Jun-18 14:00N 35°17' E 139°41'0 0.0
2018-Jun-18 13:30N 35°17' E 139°41'0 0.0
2018-Jun-18 13:00N 35°17' E 139°41'0 0.0
2018-Jun-18 12:30N 35°17' E 139°41'0 0.0
2018-Jun-18 12:00N 35°17' E 139°41'2 3.4
2018-Jun-18 11:30N 35°19' E 139°42'510.8
2018-Jun-18 11:00N 35°23' E 139°45'2 3.5
2018-Jun-18 10:30N 35°22' E 139°45'611.7
2018-Jun-18 10:01N 35°16' E 139°46'712.4
2018-Jun-18 09:29N 35°09' E 139°46'4 8.6
2018-Jun-18 09:00N 35°13' E 139°44'1 2.0
2018-Jun-18 08:30N 35°13' E 139°43'2 4.6
2018-Jun-18 07:59N 35°12' E 139°46'6 9.3
2018-Jun-18 07:20N 35°18' E 139°44'412.7
2018-Jun-18 07:00N 35°22' E 139°42'611.9
2018-Jun-18 06:30N 35°27' E 139°47'9 8.6
2018-Jun-18 05:26N 35°29' E 139°58'0 0.2
2018-Jun-18 04:51N 35°29' E 139°58'4 5.2
2018-Jun-18 04:06N 35°27' E 139°53'110.1
2018-Jun-18 04:00N 35°27' E 139°53'510.6
2018-Jun-18 03:30N 35°23' E 139°48'611.1
2018-Jun-18 03:01N 35°19' E 139°43'3 1.2
2018-Jun-18 00:39N 35°17' E 139°41'0 1.3
2018-Jun-18 00:30N 35°17' E 139°41'0 0.0
2018-Jun-18 00:00N 35°17' E 139°41'0 0.0
2018-Jun-17 23:30N 35°17' E 139°41'0 0.0
2018-Jun-17 23:00N 35°17' E 139°41'0 0.0
2018-Jun-17 22:30N 35°17' E 139°41'0 0.0
2018-Jun-17 22:00N 35°17' E 139°41'0 0.0
2018-Jun-17 21:30N 35°17' E 139°41'0 0.0
2018-Jun-17 21:00N 35°17' E 139°41'0 0.0
2018-Jun-17 20:30N 35°17' E 139°41'0 0.0
2018-Jun-17 20:00N 35°17' E 139°41'0 0.0
2018-Jun-17 19:30N 35°17' E 139°41'0 0.0
2018-Jun-17 19:00N 35°17' E 139°41'0 0.0
2018-Jun-17 18:30N 35°17' E 139°41'0 0.0
2018-Jun-17 18:00N 35°17' E 139°41'0 0.0
2018-Jun-17 17:30N 35°17' E 139°41'0 0.0
2018-Jun-17 17:00N 35°17' E 139°41'0 0.0
2018-Jun-17 16:30N 35°17' E 139°41'0 0.0
2018-Jun-17 16:00N 35°17' E 139°41'0 0.0
2018-Jun-17 15:30N 35°17' E 139°41'0 0.0
2018-Jun-17 15:00N 35°17' E 139°41'0 0.0
2018-Jun-17 14:30N 35°17' E 139°41'0 0.0
2018-Jun-17 14:00N 35°17' E 139°41'0 0.0
2018-Jun-17 13:30N 35°17' E 139°41'0 0.0
2018-Jun-17 13:00N 35°17' E 139°41'0 0.0
2018-Jun-17 12:30N 35°17' E 139°41'0 0.0
2018-Jun-17 12:00N 35°17' E 139°41'0 0.0
2018-Jun-17 11:30N 35°17' E 139°41'0 0.0
2018-Jun-17 11:00N 35°17' E 139°41'0 0.0
2018-Jun-17 10:30N 35°17' E 139°41'0 0.0
2018-Jun-17 10:00N 35°17' E 139°41'0 0.0
2018-Jun-17 09:30N 35°17' E 139°41'0 0.0
2018-Jun-17 09:00N 35°17' E 139°41'0 0.0
2018-Jun-17 08:30N 35°17' E 139°41'0 0.0
2018-Jun-17 08:00N 35°17' E 139°41'0 0.0
2018-Jun-17 07:30N 35°17' E 139°41'0 0.0
2018-Jun-17 07:00N 35°17' E 139°41'0 0.0
2018-Jun-17 06:30N 35°17' E 139°41'0 0.0
2018-Jun-17 06:00N 35°17' E 139°41'0 0.0
2018-Jun-17 05:30N 35°17' E 139°41'0 0.0
2018-Jun-17 05:00N 35°17' E 139°41'0 0.0
2018-Jun-17 04:30N 35°17' E 139°41'0 0.0
2018-Jun-17 04:00N 35°17' E 139°41'0 0.0
2018-Jun-17 03:30N 35°17' E 139°41'0 0.0
2018-Jun-17 03:00N 35°17' E 139°41'0 0.5
2018-Jun-17 02:31N 35°17' E 139°41'7 8.6
2018-Jun-17 01:44N 35°12' E 139°46'312.0
2018-Jun-17 01:30N 35°15' E 139°46'612.7
2018-Jun-17 01:01N 35°20' E 139°42'713.2
2018-Jun-17 00:31N 35°26' E 139°45'4 7.8
2018-Jun-17 00:00N 35°30' E 139°47'1 0.6
2018-Jun-16 23:09N 35°29' E 139°47'0 0.0
2018-Jun-16 23:00N 35°29' E 139°47'3 5.2
2018-Jun-16 22:31N 35°27' E 139°46'510.9
2018-Jun-16 22:00N 35°22' E 139°43'611.6
2018-Jun-16 21:30N 35°17' E 139°46'711.7
2018-Jun-16 20:52N 35°09' E 139°46'4 6.3
2018-Jun-16 20:18N 35°13' E 139°45'2 0.3
2018-Jun-16 13:18N 35°13' E 139°43'2 5.9
2018-Jun-16 12:58N 35°13' E 139°45'4 8.4
2018-Jun-16 12:27N 35°17' E 139°45'613.2
2018-Jun-16 12:00N 35°22' E 139°42'2 4.0
2018-Jun-16 11:30N 35°24' E 139°44'0 0.1
2018-Jun-16 11:00N 35°24' E 139°44'0 0.0
2018-Jun-16 10:30N 35°24' E 139°44'0 0.0
2018-Jun-16 10:00N 35°24' E 139°44'0 0.0
2018-Jun-16 09:30N 35°24' E 139°44'0 0.0
2018-Jun-16 09:00N 35°24' E 139°44'2 4.9
2018-Jun-16 08:30N 35°22' E 139°42'611.6
2018-Jun-16 08:00N 35°16' E 139°46'711.6
2018-Jun-16 07:25N 35°10' E 139°47'4 9.8
2018-Jun-16 06:59N 35°14' E 139°46'5 9.5
2018-Jun-16 06:30N 35°17' E 139°42'2 3.2
2018-Jun-16 06:00N 35°17' E 139°41'0 0.0
2018-Jun-16 05:30N 35°17' E 139°41'0 0.0
2018-Jun-16 05:00N 35°17' E 139°41'0 0.0
2018-Jun-16 04:30N 35°17' E 139°41'0 0.0
2018-Jun-16 04:00N 35°17' E 139°41'0 0.0
2018-Jun-16 03:30N 35°17' E 139°41'0 0.0
2018-Jun-16 03:00N 35°17' E 139°41'0 0.0
2018-Jun-16 02:30N 35°17' E 139°41'0 0.0
2018-Jun-16 02:00N 35°17' E 139°41'0 0.0
2018-Jun-16 01:28N 35°17' E 139°41'1 2.9
2018-Jun-16 00:59N 35°18' E 139°42'2 4.5
2018-Jun-16 00:30N 35°18' E 139°39'2 3.8
2018-Jun-16 00:00N 35°17' E 139°41'0 0.4
2018-Jun-15 23:30N 35°17' E 139°41'0 0.0
2018-Jun-15 23:00N 35°17' E 139°41'0 0.0
2018-Jun-15 22:30N 35°17' E 139°41'0 0.0
2018-Jun-15 22:00N 35°17' E 139°41'0 0.0
2018-Jun-15 21:30N 35°17' E 139°41'0 0.0
2018-Jun-15 21:00N 35°17' E 139°41'0 0.0
2018-Jun-15 20:30N 35°17' E 139°41'0 0.0
2018-Jun-15 20:00N 35°17' E 139°41'0 0.0
2018-Jun-15 19:30N 35°17' E 139°41'0 0.0
2018-Jun-15 19:00N 35°17' E 139°41'0 0.0
2018-Jun-15 18:30N 35°17' E 139°41'0 0.0
2018-Jun-15 18:00N 35°17' E 139°41'0 0.0
2018-Jun-15 17:30N 35°17' E 139°41'0 0.0
2018-Jun-15 17:00N 35°17' E 139°41'0 0.0
2018-Jun-15 16:30N 35°17' E 139°41'0 0.0
2018-Jun-15 16:00N 35°17' E 139°41'0 0.0
2018-Jun-15 15:30N 35°17' E 139°41'0 0.0
2018-Jun-15 15:00N 35°17' E 139°41'0 0.0
2018-Jun-15 14:30N 35°17' E 139°41'0 0.0
2018-Jun-15 14:00N 35°17' E 139°41'0 0.0
2018-Jun-15 13:30N 35°17' E 139°41'0 0.0
2018-Jun-15 13:00N 35°17' E 139°41'0 0.0
2018-Jun-15 12:30N 35°17' E 139°41'0 0.0
2018-Jun-15 12:00N 35°17' E 139°41'0 0.0
2018-Jun-15 11:30N 35°17' E 139°41'0 0.0
2018-Jun-15 11:00N 35°17' E 139°41'0 0.0
2018-Jun-15 10:30N 35°17' E 139°41'0 0.0
2018-Jun-15 10:00N 35°17' E 139°41'0 0.0
2018-Jun-15 09:31N 35°17' E 139°41'0 0.0
2018-Jun-15 09:00N 35°17' E 139°41'0 0.0
2018-Jun-15 08:30N 35°17' E 139°41'0 0.0
2018-Jun-15 08:00N 35°17' E 139°41'0 0.0
2018-Jun-15 07:29N 35°17' E 139°41'0 0.0
2018-Jun-15 07:00N 35°17' E 139°41'0 0.0
2018-Jun-15 06:30N 35°17' E 139°41'0 0.0
2018-Jun-15 06:00N 35°17' E 139°41'0 0.0
2018-Jun-15 05:30N 35°17' E 139°41'1 2.7
2018-Jun-15 05:00N 35°18' E 139°42'2 4.2
2018-Jun-15 04:30N 35°18' E 139°39'1 2.0
2018-Jun-15 04:00N 35°19' E 139°40'1 2.0
2018-Jun-15 03:30N 35°19' E 139°41'1 1.7
2018-Jun-15 02:58N 35°19' E 139°40'0 0.0
2018-Jun-15 02:29N 35°19' E 139°40'0 0.0
2018-Jun-15 02:00N 35°19' E 139°40'0 0.0
2018-Jun-15 01:30N 35°19' E 139°40'1 2.6
2018-Jun-15 01:00N 35°20' E 139°41'4 7.8
2018-Jun-15 00:30N 35°23' E 139°38'1 1.7
2018-Jun-15 00:00N 35°24' E 139°39'1 1.5
2018-Jun-14 23:30N 35°23' E 139°38'0 0.1
2018-Jun-14 23:00N 35°23' E 139°38'0 0.2
2018-Jun-14 22:30N 35°23' E 139°38'0 0.2
2018-Jun-14 22:00N 35°23' E 139°38'4 8.8
2018-Jun-14 21:30N 35°20' E 139°41'3 5.0
2018-Jun-14 20:57N 35°17' E 139°41'0 0.0
2018-Jun-14 20:30N 35°17' E 139°41'0 0.0
2018-Jun-14 19:57N 35°17' E 139°41'0 0.0
2018-Jun-14 19:30N 35°17' E 139°41'0 0.0
2018-Jun-14 18:59N 35°17' E 139°41'0 0.0
2018-Jun-14 18:30N 35°17' E 139°41'0 0.0
2018-Jun-14 17:58N 35°17' E 139°41'0 0.0
2018-Jun-14 10:07N 35°17' E 139°41'0 0.0
2018-Jun-14 10:00N 35°17' E 139°41'0 0.0
2018-Jun-14 09:30N 35°17' E 139°41'0 0.0
2018-Jun-14 08:58N 35°17' E 139°41'0 0.0
2018-Jun-14 08:29N 35°17' E 139°41'5 9.9
2018-Jun-14 08:00N 35°22' E 139°42'510.6
2018-Jun-14 07:30N 35°26' E 139°46'611.1
2018-Jun-14 07:00N 35°30' E 139°51'3 2.8
2018-Jun-14 05:59N 35°31' E 139°54'4 8.4
2018-Jun-14 05:30N 35°28' E 139°51'611.7
2018-Jun-14 05:00N 35°24' E 139°46'611.8
2018-Jun-14 04:30N 35°18' E 139°45'4 2.5
2018-Jun-14 02:47N 35°14' E 139°46'3 9.1
2018-Jun-14 02:25N 35°17' E 139°44'4 9.1
2018-Jun-14 02:00N 35°20' E 139°42'4 8.3
2018-Jun-14 01:30N 35°23' E 139°46'3 5.0
2018-Jun-14 01:00N 35°21' E 139°45'5 9.8
2018-Jun-14 00:30N 35°16' E 139°47'5 5.3
2018-Jun-13 23:34N 35°11' E 139°47'3 9.2
2018-Jun-13 23:14N 35°14' E 139°46'311.0
2018-Jun-13 22:58N 35°17' E 139°44'3 6.2
2018-Jun-13 22:27N 35°17' E 139°41'0 0.0
2018-Jun-13 22:00N 35°17' E 139°41'0 0.0
2018-Jun-13 21:29N 35°17' E 139°41'0 0.0
2018-Jun-13 21:00N 35°17' E 139°41'0 0.0
2018-Jun-13 20:30N 35°17' E 139°41'0 0.0
2018-Jun-13 20:00N 35°17' E 139°41'0 0.0
2018-Jun-13 19:30N 35°17' E 139°41'0 0.0
2018-Jun-13 19:00N 35°17' E 139°41'0 0.0
2018-Jun-13 17:29N 35°17' E 139°41'0 0.0
2018-Jun-13 16:58N 35°17' E 139°41'0 0.0
2018-Jun-13 15:55N 35°17' E 139°41'0 0.0
2018-Jun-13 15:24N 35°17' E 139°41'0 0.0
2018-Jun-13 14:49N 35°17' E 139°41'0 0.0
2018-Jun-13 13:03N 35°17' E 139°41'0 0.0
2018-Jun-13 08:39N 35°17' E 139°41'0 0.0
2018-Jun-13 08:28N 35°17' E 139°41'0 0.0
2018-Jun-13 08:00N 35°17' E 139°41'0 0.0
2018-Jun-13 07:29N 35°17' E 139°41'0 0.0
2018-Jun-13 07:00N 35°17' E 139°41'0 0.0
2018-Jun-13 06:30N 35°17' E 139°41'0 0.0
2018-Jun-13 06:00N 35°17' E 139°41'0 0.0
2018-Jun-13 05:30N 35°17' E 139°41'0 0.0
2018-Jun-13 05:00N 35°17' E 139°41'0 0.0
2018-Jun-13 04:30N 35°17' E 139°41'0 0.0
2018-Jun-13 04:00N 35°17' E 139°41'0 0.0
2018-Jun-13 03:30N 35°17' E 139°41'0 0.0
2018-Jun-13 03:00N 35°17' E 139°41'3 6.9
2018-Jun-13 02:30N 35°20' E 139°42'610.8
2018-Jun-13 01:59N 35°24' E 139°47'611.2
2018-Jun-13 01:30N 35°27' E 139°53'2 3.2
2018-Jun-13 00:55N 35°28' E 139°51'511.4
2018-Jun-13 00:30N 35°25' E 139°47'612.6
2018-Jun-13 00:00N 35°19' E 139°44'8 6.5
2018-Jun-12 22:46N 35°11' E 139°46'3 9.1
2018-Jun-12 22:29N 35°13' E 139°44'2 3.9
2018-Jun-12 21:59N 35°12' E 139°46'610.5
2018-Jun-12 21:27N 35°17' E 139°45'612.8
2018-Jun-12 21:00N 35°22' E 139°42'1 1.9
2018-Jun-12 20:30N 35°22' E 139°43'5 9.5
2018-Jun-12 20:00N 35°17' E 139°41'0 0.4
2018-Jun-12 19:29N 35°17' E 139°41'0 0.0
2018-Jun-12 19:00N 35°17' E 139°41'0 0.1
2018-Jun-12 18:30N 35°17' E 139°41'0 0.1
2018-Jun-12 18:00N 35°17' E 139°41'0 0.1
2018-Jun-12 17:30N 35°17' E 139°41'0 0.1
2018-Jun-12 17:00N 35°17' E 139°41'0 0.0
2018-Jun-12 16:29N 35°17' E 139°41'0 0.1
2018-Jun-12 16:00N 35°17' E 139°41'0 0.1
2018-Jun-12 15:30N 35°17' E 139°41'0 0.0
2018-Jun-12 15:00N 35°17' E 139°41'0 0.1
2018-Jun-12 14:30N 35°17' E 139°41'0 0.1
2018-Jun-12 14:00N 35°17' E 139°41'0 0.0
2018-Jun-12 13:30N 35°17' E 139°41'0 0.0
2018-Jun-12 12:59N 35°17' E 139°41'0 0.0
2018-Jun-12 12:30N 35°17' E 139°41'0 0.0
2018-Jun-12 12:00N 35°17' E 139°41'0 0.0
2018-Jun-12 11:30N 35°17' E 139°41'0 0.0
2018-Jun-12 11:00N 35°17' E 139°41'0 0.0
2018-Jun-12 10:30N 35°17' E 139°41'0 0.0
2018-Jun-12 10:00N 35°17' E 139°41'0 0.0
2018-Jun-12 09:30N 35°17' E 139°41'0 0.0
2018-Jun-12 09:00N 35°17' E 139°41'0 0.0
2018-Jun-12 08:30N 35°17' E 139°41'0 0.0
2018-Jun-12 07:59N 35°17' E 139°41'0 0.0
2018-Jun-12 07:30N 35°17' E 139°41'0 0.0
2018-Jun-12 07:00N 35°17' E 139°41'0 0.0
2018-Jun-12 06:30N 35°17' E 139°41'0 0.0
2018-Jun-12 06:00N 35°17' E 139°41'0 0.0
2018-Jun-12 05:30N 35°17' E 139°41'0 0.1
2018-Jun-12 04:59N 35°17' E 139°41'4 8.9
2018-Jun-12 04:29N 35°15' E 139°45'1 2.6
2018-Jun-12 04:00N 35°14' E 139°46'611.4
2018-Jun-12 03:30N 35°19' E 139°43'510.5
2018-Jun-12 03:00N 35°24' E 139°43'4 7.5
2018-Jun-12 02:30N 35°28' E 139°45'0 0.2
2018-Jun-12 02:01N 35°28' E 139°45'0 0.5
2018-Jun-12 01:31N 35°28' E 139°44'3 6.6
2018-Jun-12 01:00N 35°24' E 139°45'2 3.9
2018-Jun-12 00:30N 35°23' E 139°46'5 9.5
2018-Jun-12 00:00N 35°18' E 139°44'  

Dump ship's entire track history